createdAt,value
2022-08-28T00:00:41.860Z,76.62
2022-08-28T00:03:11.035Z,76.62
2022-08-28T00:05:39.775Z,76.62
2022-08-28T00:08:08.887Z,76.59
2022-08-28T00:10:36.453Z,76.68
2022-08-28T00:13:03.594Z,76.74
2022-08-28T00:15:34.826Z,76.81
2022-08-28T00:18:03.744Z,76.80
2022-08-28T00:20:32.034Z,76.79
2022-08-28T00:23:00.412Z,76.87
2022-08-28T00:25:29.754Z,76.86
2022-08-28T00:27:59.338Z,76.86
2022-08-28T00:30:33.624Z,77.07
2022-08-28T00:33:04.477Z,76.99
2022-08-28T00:35:31.827Z,77.11
2022-08-28T00:37:59.395Z,77.01
2022-08-28T00:40:30.606Z,77.22
2022-08-28T00:43:01.962Z,77.26
2022-08-28T00:45:29.877Z,77.34
2022-08-28T00:47:56.894Z,77.34
2022-08-28T00:50:50.968Z,77.29
2022-08-28T00:53:19.062Z,77.25
2022-08-28T00:55:46.094Z,77.37
2022-08-28T00:58:13.770Z,77.41
2022-08-28T01:00:41.274Z,77.35
2022-08-28T01:03:08.983Z,77.34
2022-08-28T01:05:36.995Z,77.47
2022-08-28T01:08:06.320Z,77.43
2022-08-28T01:10:34.865Z,77.57
2022-08-28T01:13:02.108Z,77.41
2022-08-28T01:15:33.273Z,77.67
2022-08-28T01:18:12.288Z,77.54
2022-08-28T01:20:45.567Z,77.69
2022-08-28T01:23:44.502Z,77.70
2022-08-28T01:26:11.849Z,77.78
2022-08-28T01:28:40.002Z,77.62
2022-08-28T01:31:12.941Z,77.64
2022-08-28T01:33:42.528Z,77.84
2022-08-28T01:36:12.201Z,77.86
2022-08-28T01:38:41.124Z,77.88
2022-08-28T01:41:08.923Z,77.82
2022-08-28T01:43:36.596Z,77.91
2022-08-28T01:46:06.080Z,77.94
2022-08-28T01:48:37.975Z,77.88
2022-08-28T01:51:05.244Z,78.14
2022-08-28T01:53:33.177Z,78.09
2022-08-28T01:56:04.460Z,78.20
2022-08-28T01:58:36.017Z,78.26
2022-08-28T02:01:10.729Z,78.12
2022-08-28T02:03:38.320Z,78.38
2022-08-28T02:06:06.232Z,78.28
2022-08-28T02:08:33.266Z,78.33
2022-08-28T02:11:00.772Z,78.33
2022-08-28T02:13:28.377Z,78.36
2022-08-28T02:15:55.384Z,78.46
2022-08-28T02:18:22.764Z,78.50
2022-08-28T02:20:49.625Z,78.54
2022-08-28T02:23:17.336Z,78.56
2022-08-28T02:25:44.365Z,78.49
2022-08-28T02:28:11.524Z,78.64
2022-08-28T02:30:38.806Z,78.64
2022-08-28T02:33:06.284Z,78.63
2022-08-28T02:35:33.422Z,78.58
2022-08-28T02:38:01.064Z,78.67
2022-08-28T02:40:28.309Z,78.61
2022-08-28T02:42:55.346Z,78.80
2022-08-28T02:45:22.745Z,78.76
2022-08-28T02:47:52.436Z,78.77
2022-08-28T02:50:20.136Z,78.80
2022-08-28T02:52:47.207Z,78.75
2022-08-28T02:55:16.045Z,78.73
2022-08-28T02:57:43.406Z,78.68
2022-08-28T03:00:13.526Z,78.89
2022-08-28T03:02:41.791Z,78.83
2022-08-28T03:05:10.312Z,78.98
2022-08-28T03:07:37.366Z,78.95
2022-08-28T03:10:07.174Z,79.02
2022-08-28T03:12:35.433Z,78.90
2022-08-28T03:15:03.206Z,78.94
2022-08-28T03:17:31.384Z,79.01
2022-08-28T03:19:59.105Z,78.98
2022-08-28T03:22:44.855Z,78.91
2022-08-28T03:25:12.814Z,78.96
2022-08-28T03:27:39.790Z,78.86
2022-08-28T03:30:08.093Z,78.89
2022-08-28T03:32:35.233Z,78.96
2022-08-28T03:35:02.799Z,79.01
2022-08-28T03:37:29.713Z,79.16
2022-08-28T03:39:56.773Z,78.98
2022-08-28T03:42:24.098Z,79.03
2022-08-28T03:44:51.596Z,79.01
2022-08-28T03:47:18.464Z,79.07
2022-08-28T03:49:47.645Z,79.14
2022-08-28T03:52:14.581Z,79.01
2022-08-28T03:54:41.624Z,78.99
2022-08-28T03:57:09.105Z,78.86
2022-08-28T03:59:36.095Z,78.85
2022-08-28T04:02:03.034Z,78.91
2022-08-28T04:04:30.046Z,78.92
2022-08-28T04:06:57.565Z,78.78
2022-08-28T04:09:24.504Z,78.65
2022-08-28T04:11:52.884Z,78.43
2022-08-28T04:14:19.838Z,78.32
2022-08-28T04:16:46.992Z,78.22
2022-08-28T04:19:13.994Z,78.08
2022-08-28T04:21:41.009Z,77.96
2022-08-28T04:24:09.836Z,77.60
2022-08-28T04:26:36.991Z,77.48
2022-08-28T04:29:05.096Z,76.97
2022-08-28T04:31:32.892Z,76.83
2022-08-28T04:34:01.955Z,76.38
2022-08-28T04:36:29.220Z,76.21
2022-08-28T04:38:57.963Z,75.84
2022-08-28T04:41:24.916Z,75.40
2022-08-28T04:43:52.879Z,74.96
2022-08-28T04:46:19.832Z,74.56
2022-08-28T04:48:46.788Z,74.20
2022-08-28T04:51:17.145Z,73.92
2022-08-28T04:53:44.403Z,73.76
2022-08-28T04:56:13.131Z,73.60
2022-08-28T04:58:42.029Z,73.40
2022-08-28T05:01:15.773Z,73.30
2022-08-28T05:03:42.794Z,72.93
2022-08-28T05:06:09.787Z,72.96
2022-08-28T05:08:36.755Z,72.80
2022-08-28T05:11:32.880Z,72.53
2022-08-28T05:14:04.544Z,72.48
2022-08-28T05:16:33.180Z,72.58
2022-08-28T05:19:03.458Z,72.47
2022-08-28T05:21:30.465Z,72.50
2022-08-28T05:23:58.163Z,72.48
2022-08-28T05:26:27.062Z,72.30
2022-08-28T05:28:58.203Z,71.89
2022-08-28T05:31:25.566Z,72.14
2022-08-28T05:33:53.599Z,71.82
2022-08-28T05:36:22.875Z,71.70
2022-08-28T05:38:51.309Z,71.71
2022-08-28T05:41:24.288Z,71.51
2022-08-28T05:43:53.529Z,71.54
2022-08-28T05:46:21.115Z,71.31
2022-08-28T05:48:49.440Z,71.21
2022-08-28T05:51:22.273Z,71.13
2022-08-28T05:53:50.245Z,70.51
2022-08-28T05:56:26.488Z,70.47
2022-08-28T05:58:53.403Z,70.21
2022-08-28T06:01:29.119Z,70.29
2022-08-28T06:03:59.915Z,70.13
2022-08-28T06:06:29.409Z,69.91
2022-08-28T06:09:01.597Z,69.15
2022-08-28T06:11:30.894Z,68.77
2022-08-28T06:14:02.841Z,68.72
2022-08-28T06:16:32.065Z,68.45
2022-08-28T06:19:00.355Z,68.10
2022-08-28T06:21:27.843Z,67.77
2022-08-28T06:23:55.173Z,66.96
2022-08-28T06:26:22.987Z,67.01
2022-08-28T06:28:50.412Z,66.66
2022-08-28T06:31:23.373Z,66.65
2022-08-28T06:33:56.268Z,66.34
2022-08-28T06:36:25.548Z,66.08
2022-08-28T06:38:52.688Z,65.47
2022-08-28T06:41:19.971Z,65.29
2022-08-28T06:43:47.245Z,65.00
2022-08-28T06:46:14.441Z,64.75
2022-08-28T06:48:41.507Z,63.79
2022-08-28T06:51:10.455Z,63.38
2022-08-28T06:53:40.048Z,63.05
2022-08-28T06:56:26.429Z,62.58
2022-08-28T06:58:56.383Z,62.16
2022-08-28T07:01:29.919Z,62.06
2022-08-28T07:04:00.391Z,61.69
2022-08-28T07:06:28.515Z,61.11
2022-08-28T07:08:55.418Z,60.71
2022-08-28T07:11:28.809Z,60.62
2022-08-28T07:13:56.508Z,60.20
2022-08-28T07:16:27.988Z,59.87
2022-08-28T07:18:55.458Z,59.30
2022-08-28T07:21:22.538Z,59.01
2022-08-28T07:23:49.465Z,58.93
2022-08-28T07:26:20.954Z,58.60
2022-08-28T07:28:47.845Z,58.01
2022-08-28T07:31:18.231Z,58.09
2022-08-28T07:33:45.675Z,57.75
2022-08-28T07:36:29.721Z,57.41
2022-08-28T07:38:59.366Z,56.83
2022-08-28T07:41:29.269Z,56.50
2022-08-28T07:44:14.846Z,56.52
2022-08-28T07:46:42.265Z,56.32
2022-08-28T07:49:10.077Z,56.14
2022-08-28T07:51:37.817Z,55.62
2022-08-28T07:54:05.295Z,55.19
2022-08-28T07:56:33.158Z,55.24
2022-08-28T07:59:01.159Z,55.14
2022-08-28T08:01:30.697Z,54.72
2022-08-28T08:04:01.333Z,54.74
2022-08-28T08:06:33.760Z,54.38
2022-08-28T08:09:02.299Z,54.37
2022-08-28T08:11:32.578Z,54.56
2022-08-28T08:14:05.681Z,54.11
2022-08-28T08:16:36.173Z,53.82
2022-08-28T08:19:04.092Z,53.81
2022-08-28T08:21:34.435Z,53.60
2022-08-28T08:24:02.147Z,53.61
2022-08-28T08:26:29.674Z,53.33
2022-08-28T08:28:57.367Z,53.09
2022-08-28T08:31:27.448Z,53.00
2022-08-28T08:33:56.967Z,52.95
2022-08-28T08:36:26.017Z,52.70
2022-08-28T08:38:59.821Z,52.52
2022-08-28T08:41:48.190Z,52.44
2022-08-28T08:44:23.944Z,52.57
2022-08-28T08:47:13.854Z,52.47
2022-08-28T08:50:02.145Z,52.51
2022-08-28T08:52:37.849Z,52.24
2022-08-28T08:55:25.490Z,52.11
2022-08-28T08:58:15.235Z,52.12
2022-08-28T09:01:19.723Z,51.71
2022-08-28T09:04:05.159Z,51.67
2022-08-28T09:06:55.621Z,51.56
2022-08-28T09:09:40.882Z,51.39
2022-08-28T09:12:31.866Z,51.19
2022-08-28T09:15:37.381Z,50.91
2022-08-28T09:18:14.397Z,50.67
2022-08-28T09:20:42.341Z,50.57
2022-08-28T09:23:12.855Z,50.27
2022-08-28T09:26:01.873Z,49.84
2022-08-28T09:28:32.646Z,49.97
2022-08-28T09:31:07.358Z,49.80
2022-08-28T09:33:53.406Z,49.39
2022-08-28T09:36:36.052Z,49.53
2022-08-28T09:39:13.623Z,49.31
2022-08-28T09:42:12.146Z,49.25
2022-08-28T09:44:51.367Z,48.83
2022-08-28T09:47:47.253Z,48.58
2022-08-28T09:50:35.575Z,48.43
2022-08-28T09:53:18.674Z,48.70
2022-08-28T09:56:04.183Z,48.34
2022-08-28T09:58:34.273Z,48.24
2022-08-28T10:01:38.774Z,48.28
2022-08-28T10:04:33.913Z,48.66
2022-08-28T10:07:31.048Z,48.55
2022-08-28T10:10:22.494Z,48.38
2022-08-28T10:13:08.152Z,48.51
2022-08-28T10:15:43.427Z,48.60
2022-08-28T10:18:48.074Z,48.75
2022-08-28T10:21:26.027Z,48.63
2022-08-28T10:24:14.066Z,48.73
2022-08-28T10:27:23.080Z,48.84
2022-08-28T10:30:07.915Z,48.88
2022-08-28T10:32:48.209Z,48.94
2022-08-28T10:35:53.848Z,48.98
2022-08-28T10:38:36.483Z,48.83
2022-08-28T10:41:09.484Z,49.04
2022-08-28T10:43:45.955Z,48.97
2022-08-28T10:46:37.257Z,48.98
2022-08-28T10:49:14.530Z,48.86
2022-08-28T10:51:51.346Z,48.90
2022-08-28T10:54:31.377Z,49.13
2022-08-28T10:57:21.928Z,48.95
2022-08-28T10:59:50.854Z,48.87
2022-08-28T11:02:21.513Z,48.89
2022-08-28T11:04:49.803Z,49.03
2022-08-28T11:07:32.994Z,48.98
2022-08-28T11:10:21.323Z,49.04
2022-08-28T11:12:51.452Z,49.20
2022-08-28T11:15:29.497Z,49.20
2022-08-28T11:18:15.895Z,49.23
2022-08-28T11:21:08.968Z,49.30
2022-08-28T11:23:46.516Z,49.46
2022-08-28T11:26:27.334Z,49.39
2022-08-28T11:28:54.476Z,49.35
2022-08-28T11:31:29.660Z,49.24
2022-08-28T11:33:59.118Z,49.33
2022-08-28T11:36:28.256Z,49.38
2022-08-28T11:38:55.520Z,49.61
2022-08-28T11:41:26.463Z,49.55
2022-08-28T11:44:14.547Z,50.10
2022-08-28T11:46:44.043Z,50.09
2022-08-28T11:49:29.780Z,50.22
2022-08-28T11:52:31.043Z,50.49
2022-08-28T11:55:16.494Z,50.76
2022-08-28T12:00:49.989Z,51.56
2022-08-28T12:03:31.666Z,51.67
2022-08-28T12:05:59.253Z,51.72
2022-08-28T12:08:44.847Z,51.97
2022-08-28T12:11:40.392Z,51.79
2022-08-28T12:14:14.335Z,51.99
2022-08-28T12:17:00.060Z,52.25
2022-08-28T12:19:56.422Z,52.35
2022-08-28T12:22:26.477Z,52.54
2022-08-28T12:24:57.687Z,52.68
2022-08-28T12:27:25.146Z,52.62
2022-08-28T12:29:57.527Z,52.60
2022-08-28T12:32:30.331Z,52.66
2022-08-28T12:35:00.233Z,52.71
2022-08-28T12:37:55.137Z,52.61
2022-08-28T12:40:41.598Z,52.91
2022-08-28T12:43:15.577Z,52.93
2022-08-28T12:45:51.089Z,52.97
2022-08-28T12:48:22.378Z,53.12
2022-08-28T12:51:01.009Z,53.13
2022-08-28T12:53:45.163Z,52.99
2022-08-28T12:56:14.304Z,52.51
2022-08-28T12:58:41.948Z,52.50
2022-08-28T13:01:12.151Z,52.31
2022-08-28T13:03:58.427Z,52.32
2022-08-28T13:06:28.981Z,52.13
2022-08-28T13:09:24.474Z,52.30
2022-08-28T13:11:51.678Z,52.37
2022-08-28T13:14:42.247Z,52.49
2022-08-28T13:17:10.639Z,52.60
2022-08-28T13:19:38.054Z,52.29
2022-08-28T13:22:29.699Z,52.57
2022-08-28T13:25:01.563Z,52.27
2022-08-28T13:27:28.825Z,52.22
2022-08-28T13:30:02.599Z,52.10
2022-08-28T13:32:32.583Z,52.20
2022-08-28T13:35:18.038Z,52.27
2022-08-28T13:37:51.076Z,51.99
2022-08-28T13:40:53.396Z,52.22
2022-08-28T13:43:11.325Z,52.34
2022-08-28T13:45:42.965Z,52.25
2022-08-28T13:48:12.074Z,52.18
2022-08-28T13:50:41.731Z,52.65
2022-08-28T13:53:09.308Z,52.35
2022-08-28T13:55:36.244Z,52.88
2022-08-28T13:58:04.007Z,52.81
2022-08-28T14:00:32.257Z,53.28
2022-08-28T14:03:17.644Z,53.33
2022-08-28T14:05:44.593Z,53.11
2022-08-28T14:08:11.607Z,53.10
2022-08-28T14:10:39.155Z,53.14
2022-08-28T14:13:06.340Z,53.18
2022-08-28T14:15:33.453Z,53.20
2022-08-28T14:18:01.118Z,53.43
2022-08-28T14:20:29.063Z,53.32
2022-08-28T14:22:55.983Z,53.32
2022-08-28T14:25:23.405Z,53.42
2022-08-28T14:27:50.343Z,53.66
2022-08-28T14:30:17.494Z,53.41
2022-08-28T14:32:44.393Z,53.76
2022-08-28T14:35:11.651Z,53.41
2022-08-28T14:37:38.589Z,53.69
2022-08-28T14:40:06.846Z,53.73
2022-08-28T14:42:34.323Z,54.30
2022-08-28T14:45:01.544Z,54.02
2022-08-28T14:47:28.683Z,54.34
2022-08-28T14:49:55.911Z,54.19
2022-08-28T14:52:23.159Z,54.67
2022-08-28T14:54:50.201Z,54.68
2022-08-28T14:57:17.462Z,54.42
2022-08-28T14:59:45.245Z,55.02
2022-08-28T15:02:13.618Z,54.78
2022-08-28T15:04:40.553Z,55.00
2022-08-28T15:07:10.736Z,55.07
2022-08-28T15:09:40.581Z,54.97
2022-08-28T15:12:08.351Z,54.86
2022-08-28T15:14:36.082Z,55.17
2022-08-28T15:17:03.966Z,55.11
2022-08-28T15:19:30.938Z,55.22
2022-08-28T15:21:58.280Z,55.07
2022-08-28T15:24:30.927Z,55.29
2022-08-28T15:26:59.677Z,55.30
2022-08-28T15:29:28.384Z,55.55
2022-08-28T15:31:55.566Z,55.32
2022-08-28T15:34:25.103Z,55.35
2022-08-28T15:36:55.220Z,55.59
2022-08-28T15:39:43.369Z,55.63
2022-08-28T15:42:11.442Z,55.65
2022-08-28T15:44:38.884Z,55.73
2022-08-28T15:47:06.659Z,55.67
2022-08-28T15:49:43.346Z,55.62
2022-08-28T15:52:13.972Z,55.63
2022-08-28T15:54:41.811Z,56.01
2022-08-28T15:57:08.716Z,56.09
2022-08-28T15:59:38.079Z,56.07
2022-08-28T16:02:15.586Z,56.22
2022-08-28T16:04:42.663Z,56.32
2022-08-28T16:07:09.637Z,56.45
2022-08-28T16:09:36.630Z,56.69
2022-08-28T16:12:04.169Z,56.75
2022-08-28T16:14:34.337Z,57.16
2022-08-28T16:17:05.965Z,57.09
2022-08-28T16:19:39.517Z,57.19
2022-08-28T16:22:06.672Z,57.55
2022-08-28T16:24:33.729Z,57.79
2022-08-28T16:27:00.743Z,57.97
2022-08-28T16:29:28.113Z,58.24
2022-08-28T16:31:56.778Z,58.48
2022-08-28T16:34:27.089Z,58.68
2022-08-28T16:36:56.444Z,58.64
2022-08-28T16:39:23.458Z,58.82
2022-08-28T16:41:50.381Z,59.00
2022-08-28T16:44:22.130Z,58.97
2022-08-28T16:46:49.435Z,59.19
2022-08-28T16:49:16.704Z,59.68
2022-08-28T16:51:43.692Z,59.67
2022-08-28T16:54:10.717Z,59.68
2022-08-28T16:56:38.251Z,59.98
2022-08-28T16:59:08.982Z,60.44
2022-08-28T17:01:38.074Z,60.42
2022-08-28T17:04:08.004Z,60.82
2022-08-28T17:06:35.006Z,60.76
2022-08-28T17:09:01.960Z,61.12
2022-08-28T17:11:29.256Z,61.35
2022-08-28T17:13:57.152Z,61.25
2022-08-28T17:16:26.194Z,61.53
2022-08-28T17:18:53.961Z,61.62
2022-08-28T17:21:40.730Z,62.14
2022-08-28T17:24:09.226Z,62.32
2022-08-28T17:26:36.342Z,62.50
2022-08-28T17:29:04.804Z,62.90
2022-08-28T17:31:31.807Z,62.92
2022-08-28T17:33:59.026Z,62.78
2022-08-28T17:36:33.791Z,63.20
2022-08-28T17:39:08.214Z,63.39
2022-08-28T17:41:35.434Z,63.21
2022-08-28T17:44:03.199Z,63.44
2022-08-28T17:46:32.915Z,63.64
2022-08-28T17:49:04.881Z,64.01
2022-08-28T17:51:41.985Z,63.76
2022-08-28T17:54:13.783Z,64.04
2022-08-28T17:56:41.346Z,64.19
2022-08-28T17:59:08.931Z,64.59
2022-08-28T18:01:37.010Z,64.86
2022-08-28T18:04:05.515Z,64.86
2022-08-28T18:06:33.781Z,65.05
2022-08-28T18:09:01.066Z,65.37
2022-08-28T18:11:29.099Z,65.58
2022-08-28T18:13:56.314Z,65.72
2022-08-28T18:16:27.609Z,65.81
2022-08-28T18:18:57.474Z,66.08
2022-08-28T18:21:25.195Z,66.01
2022-08-28T18:23:53.179Z,66.15
2022-08-28T18:26:21.859Z,66.36
2022-08-28T18:28:50.111Z,66.51
2022-08-28T18:31:18.664Z,66.61
2022-08-28T18:33:45.707Z,66.75
2022-08-28T18:36:14.584Z,66.72
2022-08-28T18:38:42.798Z,66.98
2022-08-28T18:41:11.338Z,67.05
2022-08-28T18:43:38.393Z,67.25
2022-08-28T18:46:10.651Z,67.43
2022-08-28T18:48:38.208Z,67.54
2022-08-28T18:51:09.912Z,67.58
2022-08-28T18:53:37.914Z,67.69
2022-08-28T18:56:06.319Z,67.96
2022-08-28T18:58:33.578Z,67.96
2022-08-28T19:01:02.865Z,67.87
2022-08-28T19:03:31.159Z,68.17
2022-08-28T19:05:58.589Z,68.06
2022-08-28T19:08:29.907Z,68.34
2022-08-28T19:10:56.968Z,68.35
2022-08-28T19:13:23.904Z,68.48
2022-08-28T19:15:53.079Z,68.67
2022-08-28T19:18:20.427Z,68.74
2022-08-28T19:20:47.901Z,68.71
2022-08-28T19:23:19.394Z,68.90
2022-08-28T19:25:49.177Z,69.10
2022-08-28T19:28:17.115Z,69.22
2022-08-28T19:30:48.714Z,69.27
2022-08-28T19:33:17.232Z,69.31
2022-08-28T19:35:44.741Z,69.45
2022-08-28T19:38:13.972Z,69.56
2022-08-28T19:40:43.270Z,69.79
2022-08-28T19:43:16.666Z,69.98
2022-08-28T19:45:45.922Z,70.05
2022-08-28T19:48:13.783Z,70.33
2022-08-28T19:50:41.236Z,70.37
2022-08-28T19:53:09.923Z,70.49
2022-08-28T19:55:37.005Z,70.55
2022-08-28T19:58:06.768Z,70.68
2022-08-28T20:00:36.825Z,70.78
2022-08-28T20:03:04.300Z,70.84
2022-08-28T20:05:31.597Z,71.00
2022-08-28T20:07:58.547Z,71.25
2022-08-28T20:10:26.389Z,71.31
2022-08-28T20:12:53.801Z,71.43
2022-08-28T20:15:22.555Z,71.56
2022-08-28T20:17:51.368Z,71.68
2022-08-28T20:20:19.764Z,71.41
2022-08-28T20:22:46.725Z,71.75
2022-08-28T20:25:15.865Z,71.78
2022-08-28T20:27:42.972Z,72.07
2022-08-28T20:30:11.380Z,72.08
2022-08-28T20:32:41.016Z,72.18
2022-08-28T20:35:10.811Z,72.29
2022-08-28T20:37:44.796Z,72.39
2022-08-28T20:40:18.686Z,72.42
2022-08-28T20:42:46.531Z,72.49
2022-08-28T20:45:15.221Z,72.68
2022-08-28T20:47:42.534Z,72.72
2022-08-28T20:50:10.305Z,72.76
2022-08-28T20:52:37.609Z,72.79
2022-08-28T20:55:07.547Z,72.92
2022-08-28T20:57:35.134Z,72.87
2022-08-28T21:00:05.617Z,73.08
2022-08-28T21:02:33.174Z,73.01
2022-08-28T21:05:00.330Z,73.20
2022-08-28T21:07:27.632Z,73.31
2022-08-28T21:10:06.761Z,73.43
2022-08-28T21:12:36.840Z,73.25
2022-08-28T21:15:05.828Z,73.36
2022-08-28T21:17:32.992Z,73.42
2022-08-28T21:20:03.064Z,73.43
2022-08-28T21:22:32.063Z,73.61
2022-08-28T21:25:00.067Z,73.50
2022-08-28T21:27:27.350Z,73.64
2022-08-28T21:29:58.605Z,73.60
2022-08-28T21:32:27.174Z,73.63
2022-08-28T21:34:55.157Z,73.62
2022-08-28T21:37:22.705Z,73.60
2022-08-28T21:39:49.696Z,73.62
2022-08-28T21:42:16.765Z,73.54
2022-08-28T21:44:48.363Z,73.60
2022-08-28T21:47:19.513Z,73.59
2022-08-28T21:49:49.664Z,73.59
2022-08-28T21:52:20.557Z,73.57
2022-08-28T21:54:48.383Z,73.51
2022-08-28T21:57:16.005Z,73.53
2022-08-28T21:59:43.472Z,73.42
2022-08-28T22:02:10.604Z,73.43
2022-08-28T22:04:37.811Z,73.47
2022-08-28T22:07:04.966Z,73.41
2022-08-28T22:09:31.953Z,73.46
2022-08-28T22:11:59.040Z,73.48
2022-08-28T22:14:26.144Z,73.44
2022-08-28T22:16:53.253Z,73.42
2022-08-28T22:19:20.325Z,73.36
2022-08-28T22:22:05.895Z,73.36
2022-08-28T22:24:33.153Z,73.28
2022-08-28T22:27:00.134Z,73.14
2022-08-28T22:29:27.167Z,72.98
2022-08-28T22:31:54.108Z,72.86
2022-08-28T22:34:21.164Z,72.81
2022-08-28T22:36:48.050Z,72.67
2022-08-28T22:39:15.106Z,72.72
2022-08-28T22:41:42.224Z,72.68
2022-08-28T22:44:09.935Z,72.80
2022-08-28T22:46:36.885Z,72.75
2022-08-28T22:49:04.592Z,72.81
2022-08-28T22:51:33.784Z,72.92
2022-08-28T22:54:00.753Z,72.81
2022-08-28T22:56:27.794Z,73.03
2022-08-28T22:58:54.713Z,72.96
2022-08-28T23:01:24.713Z,73.16
2022-08-28T23:03:52.431Z,73.29
2022-08-28T23:06:21.483Z,73.20
2022-08-28T23:08:48.485Z,73.34
2022-08-28T23:11:15.592Z,73.36
2022-08-28T23:13:42.637Z,73.43
2022-08-28T23:16:09.911Z,73.36
2022-08-28T23:19:06.840Z,73.24
2022-08-28T23:21:26.428Z,73.37
2022-08-28T23:23:53.543Z,73.41
2022-08-28T23:26:20.801Z,73.51
2022-08-28T23:28:48.213Z,73.87
2022-08-28T23:31:15.225Z,73.84
2022-08-28T23:33:42.723Z,73.99
2022-08-28T23:36:10.214Z,74.30
2022-08-28T23:38:42.968Z,74.54
2022-08-28T23:41:11.427Z,74.65
2022-08-28T23:43:38.657Z,74.82
2022-08-28T23:46:06.659Z,74.97
2022-08-28T23:48:33.716Z,75.27
2022-08-28T23:51:02.769Z,75.33
2022-08-28T23:53:30.662Z,75.56
2022-08-28T23:55:59.618Z,75.79
2022-08-28T23:58:31.631Z,75.94
